sensor_id;sensor_type;location;lat;lon;timestamp;pressure;altitude;pressure_sealevel;temperature;humidity
8075;BME280;4080;42.676;23.372;2022-09-16T00:00:08;94629.72;;;22.01;100.00
8075;BME280;4080;42.676;23.372;2022-09-16T00:02:35;94632.41;;;22.01;100.00
8075;BME280;4080;42.676;23.372;2022-09-16T00:05:02;94612.06;;;22.16;100.00
8075;BME280;4080;42.676;23.372;2022-09-16T00:07:29;94621.63;;;22.14;100.00
8075;BME280;4080;42.676;23.372;2022-09-16T00:09:57;94621.25;;;21.99;100.00
8075;BME280;4080;42.676;23.372;2022-09-16T00:12:24;94610.50;;;21.99;100.00
8075;BME280;4080;42.676;23.372;2022-09-16T00:14:52;94612.78;;;22.13;100.00
8075;BME280;4080;42.676;23.372;2022-09-16T00:17:19;94618.38;;;22.24;100.00
8075;BME280;4080;42.676;23.372;2022-09-16T00:19:46;94631.38;;;22.22;100.00
8075;BME280;4080;42.676;23.372;2022-09-16T00:22:13;94630.25;;;22.23;100.00
8075;BME280;4080;42.676;23.372;2022-09-16T00:24:40;94621.91;;;22.28;100.00
8075;BME280;4080;42.676;23.372;2022-09-16T00:27:08;94635.41;;;22.31;100.00
8075;BME280;4080;42.676;23.372;2022-09-16T00:29:35;94611.56;;;22.46;100.00
8075;BME280;4080;42.676;23.372;2022-09-16T00:32:02;94612.75;;;22.48;100.00
8075;BME280;4080;42.676;23.372;2022-09-16T00:34:29;94609.50;;;22.58;99.68
8075;BME280;4080;42.676;23.372;2022-09-16T00:36:55;94608.78;;;22.61;98.41
8075;BME280;4080;42.676;23.372;2022-09-16T00:39:22;94617.28;;;22.09;100.00
8075;BME280;4080;42.676;23.372;2022-09-16T00:41:49;94606.66;;;21.65;100.00
8075;BME280;4080;42.676;23.372;2022-09-16T00:44:52;94612.44;;;21.83;100.00
8075;BME280;4080;42.676;23.372;2022-09-16T00:47:23;94601.38;;;21.53;100.00
8075;BME280;4080;42.676;23.372;2022-09-16T00:49:52;94621.97;;;21.65;100.00
8075;BME280;4080;42.676;23.372;2022-09-16T00:52:24;94610.47;;;21.80;100.00
8075;BME280;4080;42.676;23.372;2022-09-16T00:54:52;94619.91;;;22.06;100.00
8075;BME280;4080;42.676;23.372;2022-09-16T00:57:19;94619.09;;;22.21;100.00
8075;BME280;4080;42.676;23.372;2022-09-16T00:59:47;94629.66;;;22.14;100.00
8075;BME280;4080;42.676;23.372;2022-09-16T01:02:18;94633.53;;;22.00;100.00
8075;BME280;4080;42.676;23.372;2022-09-16T01:04:48;94644.22;;;21.97;100.00
8075;BME280;4080;42.676;23.372;2022-09-16T01:07:20;94614.50;;;21.90;100.00
8075;BME280;4080;42.676;23.372;2022-09-16T01:09:50;94636.66;;;22.02;100.00
8075;BME280;4080;42.676;23.372;2022-09-16T01:12:18;94637.16;;;22.05;100.00
8075;BME280;4080;42.676;23.372;2022-09-16T01:14:44;94631.38;;;22.22;100.00
8075;BME280;4080;42.676;23.372;2022-09-16T01:17:28;94636.81;;;22.41;100.00
8075;BME280;4080;42.676;23.372;2022-09-16T01:20:31;94642.19;;;22.41;100.00
8075;BME280;4080;42.676;23.372;2022-09-16T01:26:43;94647.38;;;22.34;100.00
8075;BME280;4080;42.676;23.372;2022-09-16T01:29:30;94643.13;;;22.33;100.00
8075;BME280;4080;42.676;23.372;2022-09-16T01:32:03;94647.72;;;22.33;100.00
8075;BME280;4080;42.676;23.372;2022-09-16T01:34:43;94634.16;;;21.94;100.00
8075;BME280;4080;42.676;23.372;2022-09-16T01:37:19;94628.19;;;21.69;100.00
8075;BME280;4080;42.676;23.372;2022-09-16T01:39:57;94641.97;;;21.83;100.00
8075;BME280;4080;42.676;23.372;2022-09-16T01:42:33;94614.59;;;21.93;100.00
8075;BME280;4080;42.676;23.372;2022-09-16T01:45:05;94618.84;;;21.94;100.00
8075;BME280;4080;42.676;23.372;2022-09-16T01:47:44;94618.41;;;22.08;100.00
8075;BME280;4080;42.676;23.372;2022-09-16T01:50:18;94624.03;;;22.19;100.00
8075;BME280;4080;42.676;23.372;2022-09-16T01:52:56;94627.34;;;22.12;100.00
8075;BME280;4080;42.676;23.372;2022-09-16T01:55:27;94591.03;;;21.87;100.00
8075;BME280;4080;42.676;23.372;2022-09-16T01:58:00;94632.63;;;22.09;100.00
8075;BME280;4080;42.676;23.372;2022-09-16T02:00:28;94634.78;;;22.19;100.00
8075;BME280;4080;42.676;23.372;2022-09-16T02:03:01;94622.63;;;22.25;100.00
8075;BME280;4080;42.676;23.372;2022-09-16T02:05:33;94622.63;;;22.25;100.00
8075;BME280;4080;42.676;23.372;2022-09-16T02:08:04;94564.28;;;21.90;100.00
8075;BME280;4080;42.676;23.372;2022-09-16T02:10:36;94604.94;;;22.24;100.00
8075;BME280;4080;42.676;23.372;2022-09-16T02:13:09;94616.81;;;22.23;100.00
8075;BME280;4080;42.676;23.372;2022-09-16T02:15:38;94609.59;;;22.27;100.00
8075;BME280;4080;42.676;23.372;2022-09-16T02:18:09;94607.69;;;22.27;100.00
8075;BME280;4080;42.676;23.372;2022-09-16T02:20:39;94624.31;;;22.14;100.00
8075;BME280;4080;42.676;23.372;2022-09-16T02:23:11;94597.34;;;21.94;100.00
8075;BME280;4080;42.676;23.372;2022-09-16T02:25:41;94602.44;;;21.99;100.00
8075;BME280;4080;42.676;23.372;2022-09-16T02:28:12;94608.97;;;22.14;100.00
8075;BME280;4080;42.676;23.372;2022-09-16T02:30:43;94595.41;;;22.26;100.00
8075;BME280;4080;42.676;23.372;2022-09-16T02:33:14;94609.09;;;22.21;100.00
8075;BME280;4080;42.676;23.372;2022-09-16T02:35:44;94619.00;;;22.17;100.00
8075;BME280;4080;42.676;23.372;2022-09-16T02:38:15;94610.72;;;22.07;100.00
8075;BME280;4080;42.676;23.372;2022-09-16T02:40:47;94617.44;;;22.00;100.00
8075;BME280;4080;42.676;23.372;2022-09-16T02:43:15;94622.66;;;21.93;100.00
8075;BME280;4080;42.676;23.372;2022-09-16T02:45:46;94634.69;;;21.68;100.00
8075;BME280;4080;42.676;23.372;2022-09-16T02:48:24;94630.53;;;21.70;100.00
8075;BME280;4080;42.676;23.372;2022-09-16T02:50:59;94624.59;;;21.77;100.00
8075;BME280;4080;42.676;23.372;2022-09-16T02:53:35;94550.13;;;21.43;100.00
8075;BME280;4080;42.676;23.372;2022-09-16T02:56:09;94620.38;;;21.95;100.00
8075;BME280;4080;42.676;23.372;2022-09-16T02:58:39;94630.50;;;22.02;100.00
8075;BME280;4080;42.676;23.372;2022-09-16T03:01:05;94619.63;;;22.11;100.00
8075;BME280;4080;42.676;23.372;2022-09-16T03:03:34;94637.03;;;22.17;100.00
8075;BME280;4080;42.676;23.372;2022-09-16T03:06:18;94629.69;;;21.82;100.00
8075;BME280;4080;42.676;23.372;2022-09-16T03:08:45;94641.44;;;21.93;100.00
8075;BME280;4080;42.676;23.372;2022-09-16T03:11:31;94640.31;;;21.94;100.00
8075;BME280;4080;42.676;23.372;2022-09-16T03:14:14;94651.44;;;21.77;100.00
8075;BME280;4080;42.676;23.372;2022-09-16T03:16:50;94653.50;;;21.52;100.00
8075;BME280;4080;42.676;23.372;2022-09-16T03:19:26;94660.38;;;21.37;100.00
8075;BME280;4080;42.676;23.372;2022-09-16T03:22:01;94660.97;;;21.31;100.00
8075;BME280;4080;42.676;23.372;2022-09-16T03:24:39;94660.19;;;21.30;100.00
8075;BME280;4080;42.676;23.372;2022-09-16T03:27:11;94676.13;;;21.39;100.00
8075;BME280;4080;42.676;23.372;2022-09-16T03:29:45;94667.00;;;21.56;100.00
8075;BME280;4080;42.676;23.372;2022-09-16T03:32:17;94667.94;;;21.63;100.00
8075;BME280;4080;42.676;23.372;2022-09-16T03:34:51;94641.72;;;21.73;100.00
8075;BME280;4080;42.676;23.372;2022-09-16T03:37:20;94647.41;;;21.71;100.00
8075;BME280;4080;42.676;23.372;2022-09-16T03:39:50;94654.63;;;21.67;100.00
8075;BME280;4080;42.676;23.372;2022-09-16T03:42:18;94653.69;;;21.75;100.00
8075;BME280;4080;42.676;23.372;2022-09-16T03:44:46;94646.91;;;21.81;100.00
8075;BME280;4080;42.676;23.372;2022-09-16T03:47:13;94647.34;;;21.83;100.00
8075;BME280;4080;42.676;23.372;2022-09-16T03:49:40;94643.88;;;21.83;100.00
8075;BME280;4080;42.676;23.372;2022-09-16T03:52:09;94633.41;;;21.78;100.00
8075;BME280;4080;42.676;23.372;2022-09-16T03:54:36;94614.63;;;21.62;100.00
8075;BME280;4080;42.676;23.372;2022-09-16T03:57:03;94631.59;;;21.66;100.00
8075;BME280;4080;42.676;23.372;2022-09-16T03:59:30;94636.09;;;21.62;100.00
8075;BME280;4080;42.676;23.372;2022-09-16T04:01:57;94643.78;;;21.63;100.00
8075;BME280;4080;42.676;23.372;2022-09-16T04:04:27;94636.19;;;21.50;100.00
8075;BME280;4080;42.676;23.372;2022-09-16T04:06:53;94642.97;;;21.31;100.00
8075;BME280;4080;42.676;23.372;2022-09-16T04:09:22;94662.06;;;21.14;100.00
8075;BME280;4080;42.676;23.372;2022-09-16T04:11:48;94664.78;;;21.02;100.00
8075;BME280;4080;42.676;23.372;2022-09-16T04:14:15;94654.78;;;20.87;100.00
8075;BME280;4080;42.676;23.372;2022-09-16T04:16:42;94662.84;;;20.87;100.00
8075;BME280;4080;42.676;23.372;2022-09-16T04:19:09;94673.47;;;20.83;100.00
8075;BME280;4080;42.676;23.372;2022-09-16T04:21:38;94662.41;;;20.72;100.00
8075;BME280;4080;42.676;23.372;2022-09-16T04:24:06;94675.38;;;20.70;100.00
8075;BME280;4080;42.676;23.372;2022-09-16T04:26:34;94688.47;;;20.60;100.00
8075;BME280;4080;42.676;23.372;2022-09-16T04:29:01;94692.63;;;20.57;100.00
8075;BME280;4080;42.676;23.372;2022-09-16T04:31:28;94677.22;;;20.54;100.00
8075;BME280;4080;42.676;23.372;2022-09-16T04:33:54;94674.75;;;20.49;100.00
8075;BME280;4080;42.676;23.372;2022-09-16T04:36:21;94666.28;;;20.47;100.00
8075;BME280;4080;42.676;23.372;2022-09-16T04:38:48;94679.00;;;20.50;100.00
8075;BME280;4080;42.676;23.372;2022-09-16T04:41:17;94658.69;;;20.49;100.00
8075;BME280;4080;42.676;23.372;2022-09-16T04:43:46;94674.50;;;20.66;100.00
8075;BME280;4080;42.676;23.372;2022-09-16T04:46:16;94680.06;;;20.73;100.00
8075;BME280;4080;42.676;23.372;2022-09-16T04:48:46;94671.56;;;20.84;100.00
8075;BME280;4080;42.676;23.372;2022-09-16T04:51:13;94682.41;;;21.03;100.00
8075;BME280;4080;42.676;23.372;2022-09-16T04:53:40;94688.19;;;21.45;100.00
8075;BME280;4080;42.676;23.372;2022-09-16T04:56:10;94642.84;;;21.56;100.00
8075;BME280;4080;42.676;23.372;2022-09-16T04:58:40;94687.28;;;22.16;100.00
8075;BME280;4080;42.676;23.372;2022-09-16T05:01:10;94678.25;;;22.40;100.00
8075;BME280;4080;42.676;23.372;2022-09-16T05:03:38;94685.16;;;22.76;100.00
8075;BME280;4080;42.676;23.372;2022-09-16T05:06:07;94677.47;;;23.13;100.00
8075;BME280;4080;42.676;23.372;2022-09-16T05:08:35;94676.69;;;23.32;100.00
8075;BME280;4080;42.676;23.372;2022-09-16T05:11:03;94674.78;;;23.33;100.00
8075;BME280;4080;42.676;23.372;2022-09-16T05:13:30;94680.16;;;23.33;100.00
8075;BME280;4080;42.676;23.372;2022-09-16T05:16:00;94655.81;;;23.06;100.00
8075;BME280;4080;42.676;23.372;2022-09-16T05:18:29;94678.31;;;23.17;100.00
8075;BME280;4080;42.676;23.372;2022-09-16T05:20:57;94669.47;;;23.17;100.00
8075;BME280;4080;42.676;23.372;2022-09-16T05:23:24;94673.16;;;23.28;100.00
8075;BME280;4080;42.676;23.372;2022-09-16T05:25:51;94669.94;;;23.42;100.00
8075;BME280;4080;42.676;23.372;2022-09-16T05:28:18;94654.19;;;23.63;100.00
8075;BME280;4080;42.676;23.372;2022-09-16T05:30:45;94658.31;;;24.03;100.00
8075;BME280;4080;42.676;23.372;2022-09-16T05:33:12;94671.16;;;24.36;97.26
8075;BME280;4080;42.676;23.372;2022-09-16T05:35:40;94667.88;;;24.80;96.05
8075;BME280;4080;42.676;23.372;2022-09-16T05:38:07;94666.22;;;25.31;92.90
8075;BME280;4080;42.676;23.372;2022-09-16T05:40:34;94666.31;;;25.76;90.84
8075;BME280;4080;42.676;23.372;2022-09-16T05:43:01;94672.00;;;26.08;86.95
8075;BME280;4080;42.676;23.372;2022-09-16T05:45:27;94662.41;;;26.21;85.68
8075;BME280;4080;42.676;23.372;2022-09-16T05:47:54;94661.78;;;26.35;86.79
8075;BME280;4080;42.676;23.372;2022-09-16T05:50:21;94661.13;;;26.55;84.78
8075;BME280;4080;42.676;23.372;2022-09-16T05:52:49;94657.34;;;26.71;84.10
8075;BME280;4080;42.676;23.372;2022-09-16T05:55:16;94664.34;;;26.79;82.70
8075;BME280;4080;42.676;23.372;2022-09-16T05:57:42;94665.06;;;26.65;79.64
8075;BME280;4080;42.676;23.372;2022-09-16T06:00:10;94665.34;;;26.49;81.59
8075;BME280;4080;42.676;23.372;2022-09-16T06:02:38;94671.06;;;26.34;79.69
8075;BME280;4080;42.676;23.372;2022-09-16T06:05:05;94670.19;;;26.29;79.13
8075;BME280;4080;42.676;23.372;2022-09-16T06:07:32;94658.31;;;26.34;78.20
8075;BME280;4080;42.676;23.372;2022-09-16T06:10:00;94664.53;;;26.42;79.24
8075;BME280;4080;42.676;23.372;2022-09-16T06:12:27;94665.03;;;26.61;80.42
8075;BME280;4080;42.676;23.372;2022-09-16T06:14:54;94665.56;;;26.92;79.18
8075;BME280;4080;42.676;23.372;2022-09-16T06:17:20;94663.81;;;27.25;75.24
8075;BME280;4080;42.676;23.372;2022-09-16T06:19:47;94665.06;;;27.59;75.16
8075;BME280;4080;42.676;23.372;2022-09-16T06:22:14;94664.34;;;28.08;72.47
8075;BME280;4080;42.676;23.372;2022-09-16T06:24:40;94658.50;;;28.45;69.19
8075;BME280;4080;42.676;23.372;2022-09-16T06:27:08;94659.69;;;28.55;67.92
8075;BME280;4080;42.676;23.372;2022-09-16T06:29:35;94661.59;;;28.58;65.80
8075;BME280;4080;42.676;23.372;2022-09-16T06:32:02;94652.31;;;28.59;64.73
8075;BME280;4080;42.676;23.372;2022-09-16T06:34:29;94644.94;;;28.45;63.94
8075;BME280;4080;42.676;23.372;2022-09-16T06:36:55;94658.53;;;28.53;65.24
8075;BME280;4080;42.676;23.372;2022-09-16T06:39:22;94661.63;;;28.51;65.78
8075;BME280;4080;42.676;23.372;2022-09-16T06:41:49;94659.28;;;28.60;65.30
8075;BME280;4080;42.676;23.372;2022-09-16T06:44:17;94664.69;;;28.67;64.98
8075;BME280;4080;42.676;23.372;2022-09-16T06:46:44;94663.09;;;28.77;64.95
8075;BME280;4080;42.676;23.372;2022-09-16T06:49:10;94675.47;;;29.03;65.32
8075;BME280;4080;42.676;23.372;2022-09-16T06:51:37;94672.66;;;29.28;62.32
8075;BME280;4080;42.676;23.372;2022-09-16T06:54:05;94601.72;;;29.08;59.79
8075;BME280;4080;42.676;23.372;2022-09-16T06:56:33;94678.25;;;29.69;59.66
8075;BME280;4080;42.676;23.372;2022-09-16T06:59:02;94635.63;;;29.59;58.16
8075;BME280;4080;42.676;23.372;2022-09-16T07:01:30;94679.97;;;30.11;59.56
8075;BME280;4080;42.676;23.372;2022-09-16T07:04:01;94683.38;;;30.19;58.16
8075;BME280;4080;42.676;23.372;2022-09-16T07:06:28;94678.25;;;30.28;57.84
8075;BME280;4080;42.676;23.372;2022-09-16T07:08:55;94683.75;;;30.69;54.75
8075;BME280;4080;42.676;23.372;2022-09-16T07:11:23;94691.28;;;30.92;53.63
8075;BME280;4080;42.676;23.372;2022-09-16T07:13:50;94677.97;;;31.01;53.96
8075;BME280;4080;42.676;23.372;2022-09-16T07:16:19;94639.97;;;30.87;52.55
8075;BME280;4080;42.676;23.372;2022-09-16T07:18:51;94687.03;;;30.87;51.64
8075;BME280;4080;42.676;23.372;2022-09-16T07:21:19;94688.09;;;30.63;54.53
8075;BME280;4080;42.676;23.372;2022-09-16T07:23:46;94682.53;;;30.74;54.58
8075;BME280;4080;42.676;23.372;2022-09-16T07:26:15;94573.31;;;30.27;54.49
8075;BME280;4080;42.676;23.372;2022-09-16T07:28:43;94676.22;;;31.14;53.14
8075;BME280;4080;42.676;23.372;2022-09-16T07:31:12;94666.75;;;31.30;54.05
8075;BME280;4080;42.676;23.372;2022-09-16T07:33:41;94664.34;;;31.35;51.57
8075;BME280;4080;42.676;23.372;2022-09-16T07:36:11;94661.63;;;31.62;50.60
8075;BME280;4080;42.676;23.372;2022-09-16T07:38:39;94682.66;;;31.92;50.89
8075;BME280;4080;42.676;23.372;2022-09-16T07:41:06;94666.94;;;32.00;48.60
8075;BME280;4080;42.676;23.372;2022-09-16T07:43:33;94655.56;;;32.05;48.17
8075;BME280;4080;42.676;23.372;2022-09-16T07:46:00;94651.91;;;32.15;48.21
8075;BME280;4080;42.676;23.372;2022-09-16T07:48:28;94612.53;;;32.16;47.58
8075;BME280;4080;42.676;23.372;2022-09-16T07:50:56;94635.66;;;32.55;45.38
8075;BME280;4080;42.676;23.372;2022-09-16T07:53:25;94643.72;;;32.62;44.90
8075;BME280;4080;42.676;23.372;2022-09-16T07:55:53;94640.56;;;32.63;43.94
8075;BME280;4080;42.676;23.372;2022-09-16T07:58:20;94651.66;;;32.76;45.98
8075;BME280;4080;42.676;23.372;2022-09-16T08:00:48;94654.13;;;32.90;44.75
8075;BME280;4080;42.676;23.372;2022-09-16T08:03:15;94629.97;;;32.89;44.50
8075;BME280;4080;42.676;23.372;2022-09-16T08:05:42;94644.31;;;33.13;44.92
8075;BME280;4080;42.676;23.372;2022-09-16T08:08:09;94641.31;;;33.07;44.49
8075;BME280;4080;42.676;23.372;2022-09-16T08:10:37;94634.06;;;32.77;44.58
8075;BME280;4080;42.676;23.372;2022-09-16T08:13:04;94628.41;;;32.45;45.03
8075;BME280;4080;42.676;23.372;2022-09-16T08:15:31;94632.34;;;32.20;46.26
8075;BME280;4080;42.676;23.372;2022-09-16T08:17:58;94602.50;;;31.86;47.01
8075;BME280;4080;42.676;23.372;2022-09-16T08:20:25;94626.81;;;32.00;48.57
8075;BME280;4080;42.676;23.372;2022-09-16T08:22:52;94621.34;;;32.00;47.68
8075;BME280;4080;42.676;23.372;2022-09-16T08:25:19;94622.72;;;32.35;49.09
8075;BME280;4080;42.676;23.372;2022-09-16T08:27:47;94625.22;;;32.50;45.71
8075;BME280;4080;42.676;23.372;2022-09-16T08:30:14;94622.63;;;32.62;47.33
8075;BME280;4080;42.676;23.372;2022-09-16T08:32:41;94616.19;;;32.72;46.80
8075;BME280;4080;42.676;23.372;2022-09-16T08:35:08;94600.94;;;32.55;46.69
8075;BME280;4080;42.676;23.372;2022-09-16T08:37:34;94615.19;;;32.43;46.96
8075;BME280;4080;42.676;23.372;2022-09-16T08:40:01;94607.31;;;32.25;47.71
8075;BME280;4080;42.676;23.372;2022-09-16T08:42:50;94609.31;;;32.21;47.72
8075;BME280;4080;42.676;23.372;2022-09-16T08:45:26;94602.91;;;32.08;49.21
8075;BME280;4080;42.676;23.372;2022-09-16T08:48:04;94573.84;;;31.74;47.56
8075;BME280;4080;42.676;23.372;2022-09-16T08:50:36;94598.94;;;31.62;48.58
8075;BME280;4080;42.676;23.372;2022-09-16T08:53:06;94592.44;;;31.52;48.15
8075;BME280;4080;42.676;23.372;2022-09-16T08:55:39;94575.66;;;31.31;49.30
8075;BME280;4080;42.676;23.372;2022-09-16T08:58:13;94595.25;;;31.18;51.60
8075;BME280;4080;42.676;23.372;2022-09-16T09:00:42;94594.25;;;31.05;51.45
8075;BME280;4080;42.676;23.372;2022-09-16T09:03:16;94596.34;;;30.94;53.14
8075;BME280;4080;42.676;23.372;2022-09-16T09:08:41;94595.97;;;30.54;54.71
8075;BME280;4080;42.676;23.372;2022-09-16T09:11:16;94598.94;;;30.33;55.37
8075;BME280;4080;42.676;23.372;2022-09-16T09:13:55;94598.31;;;30.15;55.51
8075;BME280;4080;42.676;23.372;2022-09-16T09:16:36;94546.31;;;29.61;56.00
8075;BME280;4080;42.676;23.372;2022-09-16T09:19:12;94585.38;;;29.81;57.54
8075;BME280;4080;42.676;23.372;2022-09-16T09:21:49;94606.34;;;29.81;57.88
8075;BME280;4080;42.676;23.372;2022-09-16T09:24:31;94606.81;;;29.72;57.33
8075;BME280;4080;42.676;23.372;2022-09-16T09:27:05;94598.34;;;29.59;58.48
8075;BME280;4080;42.676;23.372;2022-09-16T09:29:50;94565.84;;;29.42;59.37
8075;BME280;4080;42.676;23.372;2022-09-16T09:32:33;94599.56;;;29.55;58.64
8075;BME280;4080;42.676;23.372;2022-09-16T09:35:13;94590.69;;;29.47;58.58
8075;BME280;4080;42.676;23.372;2022-09-16T09:38:03;94593.78;;;29.38;60.57
8075;BME280;4080;42.676;23.372;2022-09-16T09:40:37;94596.91;;;29.41;60.88
8075;BME280;4080;42.676;23.372;2022-09-16T09:43:09;94582.94;;;29.38;60.63
8075;BME280;4080;42.676;23.372;2022-09-16T09:45:42;94582.16;;;29.42;60.83
8075;BME280;4080;42.676;23.372;2022-09-16T09:48:16;94596.50;;;29.38;60.63
8075;BME280;4080;42.676;23.372;2022-09-16T09:50:46;94607.00;;;29.36;61.77
8075;BME280;4080;42.676;23.372;2022-09-16T09:53:17;94600.78;;;29.36;60.60
8075;BME280;4080;42.676;23.372;2022-09-16T09:55:45;94602.41;;;29.30;60.85
8075;BME280;4080;42.676;23.372;2022-09-16T09:58:23;94568.38;;;29.11;62.60
8075;BME280;4080;42.676;23.372;2022-09-16T10:00:53;94602.03;;;29.24;62.70
8075;BME280;4080;42.676;23.372;2022-09-16T10:03:22;94604.06;;;29.13;63.09
8075;BME280;4080;42.676;23.372;2022-09-16T10:05:49;94620.75;;;29.04;64.18
8075;BME280;4080;42.676;23.372;2022-09-16T10:08:22;94631.28;;;28.95;64.73
8075;BME280;4080;42.676;23.372;2022-09-16T10:10:51;94633.25;;;28.84;66.43
8075;BME280;4080;42.676;23.372;2022-09-16T10:13:19;94649.16;;;28.75;68.18
8075;BME280;4080;42.676;23.372;2022-09-16T10:15:47;94645.72;;;28.53;70.10
8075;BME280;4080;42.676;23.372;2022-09-16T10:18:23;94626.00;;;28.17;70.80
8075;BME280;4080;42.676;23.372;2022-09-16T10:20:57;94604.31;;;27.74;71.90
8075;BME280;4080;42.676;23.372;2022-09-16T10:23:25;94705.00;;;28.01;73.64
8075;BME280;4080;42.676;23.372;2022-09-16T10:28:56;94765.69;;;27.61;77.48
8075;BME280;4080;42.676;23.372;2022-09-16T10:31:25;94789.16;;;27.25;87.97
8075;BME280;4080;42.676;23.372;2022-09-16T10:33:55;94820.91;;;26.77;91.13
8075;BME280;4080;42.676;23.372;2022-09-16T10:36:23;94849.53;;;26.34;94.33
8075;BME280;4080;42.676;23.372;2022-09-16T10:38:53;94840.84;;;25.84;98.73
8075;BME280;4080;42.676;23.372;2022-09-16T10:41:22;94847.56;;;25.37;100.00
8075;BME280;4080;42.676;23.372;2022-09-16T10:43:52;94838.47;;;24.96;100.00
8075;BME280;4080;42.676;23.372;2022-09-16T10:46:20;94846.44;;;24.62;100.00
8075;BME280;4080;42.676;23.372;2022-09-16T10:48:48;94838.72;;;24.19;100.00
8075;BME280;4080;42.676;23.372;2022-09-16T10:51:23;94825.66;;;23.78;100.00
8075;BME280;4080;42.676;23.372;2022-09-16T10:53:53;94806.28;;;23.34;100.00
8075;BME280;4080;42.676;23.372;2022-09-16T10:56:21;94816.13;;;23.27;100.00
8075;BME280;4080;42.676;23.372;2022-09-16T10:59:00;94814.84;;;23.20;100.00
8075;BME280;4080;42.676;23.372;2022-09-16T11:01:35;94784.25;;;23.09;100.00
8075;BME280;4080;42.676;23.372;2022-09-16T11:04:24;94763.34;;;23.03;100.00
8075;BME280;4080;42.676;23.372;2022-09-16T11:07:08;94751.09;;;23.05;100.00
8075;BME280;4080;42.676;23.372;2022-09-16T11:09:43;94747.28;;;23.06;100.00
8075;BME280;4080;42.676;23.372;2022-09-16T11:12:38;94733.13;;;23.09;100.00
8075;BME280;4080;42.676;23.372;2022-09-16T11:15:16;94675.06;;;22.89;100.00
8075;BME280;4080;42.676;23.372;2022-09-16T11:17:56;94695.59;;;23.16;100.00
8075;BME280;4080;42.676;23.372;2022-09-16T11:20:43;94687.81;;;23.31;100.00
8075;BME280;4080;42.676;23.372;2022-09-16T11:23:26;94663.66;;;23.34;100.00
8075;BME280;4080;42.676;23.372;2022-09-16T11:26:00;94665.34;;;23.42;100.00
8075;BME280;4080;42.676;23.372;2022-09-16T11:28:46;94638.78;;;23.60;100.00
8075;BME280;4080;42.676;23.372;2022-09-16T11:31:21;94646.47;;;23.84;100.00
8075;BME280;4080;42.676;23.372;2022-09-16T11:33:59;94638.31;;;24.04;100.00
8075;BME280;4080;42.676;23.372;2022-09-16T11:36:47;94628.34;;;24.31;100.00
8075;BME280;4080;42.676;23.372;2022-09-16T11:39:30;94628.63;;;24.52;100.00
8075;BME280;4080;42.676;23.372;2022-09-16T11:42:04;94627.34;;;24.72;100.00
8075;BME280;4080;42.676;23.372;2022-09-16T11:44:44;94639.19;;;24.94;100.00
8075;BME280;4080;42.676;23.372;2022-09-16T11:47:26;94634.41;;;24.81;100.00
8075;BME280;4080;42.676;23.372;2022-09-16T11:50:04;94615.97;;;24.56;100.00
8075;BME280;4080;42.676;23.372;2022-09-16T11:52:54;94626.00;;;24.56;100.00
8075;BME280;4080;42.676;23.372;2022-09-16T11:55:36;94615.81;;;24.45;100.00
8075;BME280;4080;42.676;23.372;2022-09-16T11:58:14;94613.25;;;24.53;100.00
8075;BME280;4080;42.676;23.372;2022-09-16T12:00:44;94616.75;;;24.57;100.00
8075;BME280;4080;42.676;23.372;2022-09-16T12:03:21;94605.34;;;24.70;100.00
8075;BME280;4080;42.676;23.372;2022-09-16T12:05:54;94597.97;;;24.97;100.00
8075;BME280;4080;42.676;23.372;2022-09-16T12:08:32;94593.25;;;25.21;100.00
8075;BME280;4080;42.676;23.372;2022-09-16T12:11:07;94605.31;;;25.34;100.00
8075;BME280;4080;42.676;23.372;2022-09-16T12:13:42;94609.91;;;25.30;100.00
8075;BME280;4080;42.676;23.372;2022-09-16T12:16:13;94620.06;;;25.06;100.00
8075;BME280;4080;42.676;23.372;2022-09-16T12:18:43;94632.69;;;24.99;100.00
8075;BME280;4080;42.676;23.372;2022-09-16T12:21:18;94628.00;;;24.96;100.00
8075;BME280;4080;42.676;23.372;2022-09-16T12:23:48;94629.53;;;24.93;100.00
8075;BME280;4080;42.676;23.372;2022-09-16T12:26:20;94627.25;;;24.95;100.00
8075;BME280;4080;42.676;23.372;2022-09-16T12:29:04;94634.19;;;24.96;100.00
8075;BME280;4080;42.676;23.372;2022-09-16T12:31:34;94627.41;;;24.80;100.00
8075;BME280;4080;42.676;23.372;2022-09-16T12:34:08;94641.72;;;24.80;100.00
8075;BME280;4080;42.676;23.372;2022-09-16T12:36:39;94638.09;;;24.69;100.00
8075;BME280;4080;42.676;23.372;2022-09-16T12:39:09;94636.41;;;24.57;100.00
8075;BME280;4080;42.676;23.372;2022-09-16T12:41:51;94634.66;;;24.42;100.00
8075;BME280;4080;42.676;23.372;2022-09-16T12:44:45;94637.06;;;24.24;100.00
8075;BME280;4080;42.676;23.372;2022-09-16T12:47:25;94654.63;;;24.14;100.00
8075;BME280;4080;42.676;23.372;2022-09-16T12:50:20;94662.25;;;24.09;100.00
8075;BME280;4080;42.676;23.372;2022-09-16T12:53:09;94670.38;;;24.12;100.00
8075;BME280;4080;42.676;23.372;2022-09-16T12:55:50;94669.59;;;24.12;100.00
8075;BME280;4080;42.676;23.372;2022-09-16T13:01:20;94689.44;;;24.23;100.00
8075;BME280;4080;42.676;23.372;2022-09-16T13:03:50;94701.03;;;24.27;100.00
8075;BME280;4080;42.676;23.372;2022-09-16T13:06:23;94715.66;;;24.26;100.00
8075;BME280;4080;42.676;23.372;2022-09-16T13:08:51;94712.41;;;24.17;100.00
8075;BME280;4080;42.676;23.372;2022-09-16T13:11:21;94717.56;;;24.03;100.00
8075;BME280;4080;42.676;23.372;2022-09-16T13:13:51;94706.44;;;23.81;100.00
8075;BME280;4080;42.676;23.372;2022-09-16T13:16:31;94728.88;;;23.66;100.00
8075;BME280;4080;42.676;23.372;2022-09-16T13:19:23;94743.06;;;23.63;100.00
8075;BME280;4080;42.676;23.372;2022-09-16T13:21:55;94738.19;;;23.53;100.00
8075;BME280;4080;42.676;23.372;2022-09-16T13:24:28;94735.75;;;23.44;100.00
8075;BME280;4080;42.676;23.372;2022-09-16T13:26:56;94738.66;;;23.36;100.00
8075;BME280;4080;42.676;23.372;2022-09-16T13:29:30;94693.13;;;23.08;100.00
8075;BME280;4080;42.676;23.372;2022-09-16T13:31:58;94718.13;;;23.28;100.00
8075;BME280;4080;42.676;23.372;2022-09-16T13:34:26;94718.91;;;23.28;100.00
8075;BME280;4080;42.676;23.372;2022-09-16T13:36:52;94710.66;;;23.21;100.00
8075;BME280;4080;42.676;23.372;2022-09-16T13:39:29;94699.78;;;23.14;100.00